Glendive, MT

12:46 AM MST on February 12, 2016 (GMT -0700)
APRSWXNET | | Change Station
CLOSE
Current Station
Personal Weather Station
Location: Glendive, MT
Elevation: 2208 ft
Nearby Weather Stations

Elev 2208 ft 47.04 °N, 104.80 °W | Updated 19 minutes ago

Overcast
Overcast
25 °F
Feels Like 25 °F
N
2
Wind Variable Wind from NNE
Gusts 5.0 mph

Today
High -- | Low -- °F
--% Chance of Precip.
Yesterday
High -- | Low -- °F
Precip. -- in
Pressure 30.35 in
Visibility 10.0 miles
Clouds Overcast 1500 ft
Windchill 25 °F
Dew Point 21 °F
Humidity 86%
Rainfall in
Snow Depth Not available.
7:09 AM 5:18 PM
Waxing Crescent, 18% visible
METAR KGDV 120735Z AUTO 05006KT 10SM OVC015 M05/M07 A3035 RMK AO1
Pressure 30.35 in
Visibility 10.0 miles
Clouds Overcast 1500 ft
Windchill 25 °F
Dew Point 21 °F
Humidity 86%
Rainfall in
Snow Depth Not available.
7:09 AM 5:18 PM
Waxing Crescent, 18% visible
METAR KGDV 120735Z AUTO 05006KT 10SM OVC015 M05/M07 A3035 RMK AO1

10-Day Weather Forecast

Almanac

Astronomy

Feb. 12, 2016 Rise Set
Actual Time
Civil Twilight
Nautical Twilight
Astronomical Twilight
Moon
Length of Visible Light
Length of Day
Tomorrow will be .
, % of the Moon is Illuminated

Today's Extremes

State Highs State Lows

Community

WunderPhotos

Upload Photos

1,892,278 photos uploaded!

WunderBlog® & News

Nearby

Air Quality

  Air Quality AQ Index Pollutant
Not available.

Snow Depth

Station Depth Elevation

Earthquake Activity

City Distance Mag. Time & Date
Minimum magnitude displayed is 2.5.

Coastal Water Temperatures

Place Temperature

Stations

Nearby Weather Stations

Station Location Temp. Windchill Dew Point Humidity Wind Precip. Elev Updated Type
                   

Watches & Warnings

There are currently no watches in effect.